createdAt,value
2022-08-14T00:00:20.687Z,7.13
2022-08-14T00:05:23.451Z,7.45
2022-08-14T00:15:52.901Z,6.53
2022-08-14T00:20:56.986Z,7.07
2022-08-14T00:26:06.497Z,8.38
2022-08-14T00:31:10.779Z,7.28
2022-08-14T00:36:36.649Z,8.15
2022-08-14T00:41:38.785Z,6.97
2022-08-14T00:46:42.046Z,7.75
2022-08-14T00:56:50.425Z,6.93
2022-08-14T01:01:56.333Z,7.03
2022-08-14T01:07:00.763Z,11.48
2022-08-14T01:12:13.002Z,7.15
2022-08-14T01:17:49.689Z,7.78
2022-08-14T01:22:54.105Z,8.15
2022-08-14T01:27:58.045Z,9.30
2022-08-14T01:33:00.684Z,7.88
2022-08-14T01:38:05.917Z,8.18
2022-08-14T01:43:13.067Z,7.57
2022-08-14T01:48:20.795Z,7.07
2022-08-14T01:53:25.358Z,8.48
2022-08-14T01:58:34.070Z,12.52
2022-08-14T02:03:41.285Z,8.68
2022-08-14T02:08:55.236Z,9.45
2022-08-14T02:14:06.790Z,9.40
2022-08-14T02:19:13.527Z,9.50
2022-08-14T02:24:39.229Z,9.98
2022-08-14T02:30:00.549Z,9.02
2022-08-14T02:35:06.788Z,9.77
2022-08-14T02:40:12.629Z,9.00
2022-08-14T02:45:15.488Z,11.82
2022-08-14T02:50:21.192Z,10.65
2022-08-14T02:55:32.974Z,9.02
2022-08-14T03:00:40.456Z,9.48
2022-08-14T03:05:43.174Z,9.95
2022-08-14T03:10:48.971Z,10.50
2022-08-14T03:15:55.572Z,9.90
2022-08-14T03:21:06.085Z,10.35
2022-08-14T03:26:18.233Z,11.15
2022-08-14T03:31:26.065Z,10.93
2022-08-14T03:37:51.228Z,11.45
2022-08-14T03:47:05.328Z,11.65
2022-08-14T03:52:27.784Z,12.15
2022-08-14T03:57:32.430Z,12.20
2022-08-14T04:02:53.193Z,12.63
2022-08-14T04:08:08.387Z,12.65
2022-08-14T04:13:20.118Z,11.75
2022-08-14T04:18:26.652Z,13.82
2022-08-14T04:23:33.431Z,12.98
2022-08-14T04:29:07.074Z,12.25
2022-08-14T04:34:01.489Z,11.10
2022-08-14T04:39:21.988Z,12.38
2022-08-14T04:44:36.174Z,12.63
2022-08-14T04:49:56.633Z,11.60
2022-08-14T04:55:00.228Z,11.82
2022-08-14T05:00:07.163Z,13.68
2022-08-14T05:05:20.872Z,11.43
2022-08-14T05:10:26.263Z,11.07
2022-08-14T05:15:39.471Z,10.82
2022-08-14T05:21:56.520Z,11.05
2022-08-14T05:26:17.131Z,11.02
2022-08-14T05:31:22.338Z,12.05
2022-08-14T05:36:25.606Z,11.48
2022-08-14T05:41:52.896Z,14.35
2022-08-14T05:46:53.640Z,11.32
2022-08-14T05:51:57.776Z,11.63
2022-08-14T05:57:00.986Z,11.70
2022-08-14T06:07:09.618Z,11.30
2022-08-14T06:12:12.473Z,12.48
2022-08-14T06:17:46.972Z,10.90
2022-08-14T06:22:49.756Z,12.77
2022-08-14T06:27:52.361Z,10.00
2022-08-14T06:32:56.994Z,10.50
2022-08-14T06:38:04.478Z,9.73
2022-08-14T06:43:09.420Z,11.10
2022-08-14T06:48:17.765Z,9.02
2022-08-14T06:53:21.033Z,8.23
2022-08-14T06:58:28.638Z,8.20
2022-08-14T07:03:52.395Z,8.07
2022-08-14T07:08:55.111Z,8.35
2022-08-14T07:13:57.718Z,8.80
2022-08-14T07:19:01.671Z,8.63
2022-08-14T07:24:04.811Z,8.55
2022-08-14T07:29:07.436Z,7.90
2022-08-14T07:34:11.558Z,8.00
2022-08-14T07:39:14.086Z,7.95
2022-08-14T07:44:29.060Z,8.75
2022-08-14T07:49:37.000Z,8.38
2022-08-14T07:54:39.845Z,7.47
2022-08-14T07:59:47.112Z,7.55
2022-08-14T08:04:58.807Z,7.90
2022-08-14T08:10:46.221Z,7.85
2022-08-14T08:15:53.671Z,9.55
2022-08-14T08:20:59.669Z,7.25
2022-08-14T08:26:02.640Z,10.40
2022-08-14T08:31:08.244Z,7.57
2022-08-14T08:36:18.519Z,6.55
2022-08-14T08:41:21.601Z,7.10
2022-08-14T08:46:24.646Z,7.10
2022-08-14T08:51:31.251Z,7.32
2022-08-14T08:56:40.425Z,7.32
2022-08-14T09:01:43.122Z,7.40
2022-08-14T09:06:59.915Z,7.60
2022-08-14T09:12:13.832Z,7.20
2022-08-14T09:17:17.838Z,7.32
2022-08-14T09:22:36.041Z,6.80
2022-08-14T09:27:39.903Z,6.82
2022-08-14T09:33:09.366Z,6.25
2022-08-14T09:38:27.332Z,6.55
2022-08-14T09:43:34.202Z,7.72
2022-08-14T09:48:37.951Z,6.05
2022-08-14T09:54:19.525Z,6.03
2022-08-14T09:59:15.167Z,6.45
2022-08-14T10:04:32.901Z,7.23
2022-08-14T10:09:59.671Z,5.93
2022-08-14T10:15:03.013Z,5.90
2022-08-14T10:20:08.210Z,5.55
2022-08-14T10:25:41.082Z,5.78
2022-08-14T10:30:48.266Z,5.63
2022-08-14T10:35:51.020Z,5.32
2022-08-14T10:40:59.332Z,6.05
2022-08-14T10:47:36.539Z,5.38
2022-08-14T10:51:39.857Z,6.25
2022-08-14T10:56:46.137Z,5.20
2022-08-14T11:01:48.651Z,5.75
2022-08-14T11:06:54.245Z,5.50
2022-08-14T11:12:36.504Z,5.30
2022-08-14T11:17:21.799Z,5.18
2022-08-14T11:22:52.549Z,5.20
2022-08-14T11:27:55.870Z,5.38
2022-08-14T11:32:59.364Z,5.20
2022-08-14T11:38:04.407Z,4.72
2022-08-14T11:43:09.683Z,5.43
2022-08-14T11:49:03.152Z,5.20
2022-08-14T11:53:43.641Z,4.13
2022-08-14T11:58:54.199Z,5.68
2022-08-14T12:04:08.358Z,4.65
2022-08-14T12:09:32.495Z,5.57
2022-08-14T12:14:39.671Z,4.72
2022-08-14T12:19:51.518Z,4.82
2022-08-14T12:24:56.701Z,4.65
2022-08-14T12:30:01.208Z,4.50
2022-08-14T12:35:03.786Z,4.80
2022-08-14T12:40:13.602Z,5.20
2022-08-14T12:45:30.773Z,5.35
2022-08-14T12:50:38.308Z,4.68
2022-08-14T12:56:17.703Z,4.43
2022-08-14T13:01:17.115Z,4.90
2022-08-14T13:06:28.807Z,4.88
2022-08-14T13:11:41.319Z,4.50
2022-08-14T13:16:50.678Z,4.55
2022-08-14T13:21:58.558Z,4.85
2022-08-14T13:27:10.104Z,4.10
2022-08-14T13:32:16.214Z,4.47
2022-08-14T13:37:19.873Z,4.53
2022-08-14T13:42:27.709Z,4.25
2022-08-14T13:47:35.355Z,4.68
2022-08-14T13:52:51.265Z,5.28
2022-08-14T13:58:04.587Z,4.60
2022-08-14T14:03:10.312Z,5.10
2022-08-14T14:08:18.901Z,5.55
2022-08-14T14:13:42.062Z,4.63
2022-08-14T14:18:52.118Z,5.47
2022-08-14T14:23:56.254Z,4.88
2022-08-14T14:29:01.536Z,4.65
2022-08-14T14:34:07.419Z,4.72
2022-08-14T14:39:25.361Z,6.10
2022-08-14T14:44:35.382Z,5.03
2022-08-14T14:49:51.012Z,4.45
2022-08-14T14:54:58.919Z,6.93
2022-08-14T15:00:01.670Z,6.30
2022-08-14T15:05:08.102Z,4.80
2022-08-14T15:10:27.739Z,5.07
2022-08-14T15:15:37.284Z,6.68
2022-08-14T15:20:41.740Z,16.20
2022-08-14T15:25:45.525Z,4.38
2022-08-14T15:36:04.346Z,4.53
2022-08-14T15:41:08.617Z,5.57
2022-08-14T15:46:41.358Z,4.80
2022-08-14T15:51:35.759Z,4.60
2022-08-14T16:01:54.677Z,4.57
2022-08-14T16:06:59.177Z,4.65
2022-08-14T16:12:01.840Z,5.75
2022-08-14T16:17:07.430Z,5.30
2022-08-14T16:22:59.267Z,4.05
2022-08-14T16:27:41.398Z,3.95
2022-08-14T16:32:54.567Z,4.00
2022-08-14T16:38:44.643Z,4.28
2022-08-14T16:43:25.975Z,3.95
2022-08-14T16:48:55.517Z,5.63
2022-08-14T16:53:55.183Z,4.75
2022-08-14T16:59:12.125Z,4.05
2022-08-14T17:04:24.533Z,4.50
2022-08-14T17:09:33.240Z,4.90
2022-08-14T17:14:59.326Z,4.10
2022-08-14T17:20:08.610Z,4.35
2022-08-14T17:25:30.214Z,3.92
2022-08-14T17:30:49.215Z,4.35
2022-08-14T17:36:09.326Z,6.10
2022-08-14T17:41:32.822Z,6.25
2022-08-14T17:46:43.498Z,6.72
2022-08-14T17:52:07.773Z,5.65
2022-08-14T17:57:23.126Z,4.47
2022-08-14T18:02:31.027Z,4.97
2022-08-14T18:07:59.571Z,5.65
2022-08-14T18:13:01.672Z,4.88
2022-08-14T18:18:07.034Z,6.78
2022-08-14T18:23:13.114Z,6.07
2022-08-14T18:28:47.888Z,5.68
2022-08-14T18:33:52.834Z,5.90
2022-08-14T18:39:22.798Z,5.13
2022-08-14T18:45:12.569Z,7.00
2022-08-14T18:50:26.839Z,6.40
2022-08-14T18:55:53.433Z,5.63
2022-08-14T19:01:00.103Z,6.63
2022-08-14T19:06:04.685Z,6.13
2022-08-14T19:11:50.497Z,6.05
2022-08-14T19:16:55.482Z,6.15
2022-08-14T19:21:58.940Z,6.60
2022-08-14T19:27:23.636Z,8.15
2022-08-14T19:32:39.676Z,6.43
2022-08-14T19:37:52.053Z,7.22
2022-08-14T19:42:58.411Z,6.63
2022-08-14T19:48:05.170Z,7.50
2022-08-14T19:53:16.513Z,8.10
2022-08-14T19:58:30.065Z,8.68
2022-08-14T20:04:00.787Z,8.15
2022-08-14T20:11:05.838Z,11.60
2022-08-14T20:14:31.183Z,13.85
2022-08-14T20:19:37.267Z,8.07
2022-08-14T20:24:41.800Z,8.02
2022-08-14T20:29:45.335Z,7.65
2022-08-14T20:34:51.323Z,8.50
2022-08-14T20:39:55.729Z,8.93
2022-08-14T20:45:23.733Z,10.27
2022-08-14T20:50:30.185Z,7.22
2022-08-14T20:55:37.435Z,8.45
2022-08-14T21:00:52.275Z,9.20
2022-08-14T21:05:59.822Z,7.28
2022-08-14T21:11:05.578Z,10.05
2022-08-14T21:16:25.718Z,7.00
2022-08-14T21:21:41.312Z,9.57
2022-08-14T21:26:52.670Z,8.00
2022-08-14T21:32:03.241Z,7.82
2022-08-14T21:37:24.947Z,7.60
2022-08-14T21:42:32.426Z,7.90
2022-08-14T21:47:38.479Z,8.98
2022-08-14T21:52:51.313Z,7.93
2022-08-14T21:58:52.254Z,7.63
2022-08-14T22:03:35.264Z,7.50
2022-08-14T22:08:40.182Z,6.72
2022-08-14T22:13:49.010Z,7.10
2022-08-14T22:18:52.271Z,7.40
2022-08-14T22:23:56.140Z,10.55
2022-08-14T22:28:59.025Z,7.05
2022-08-14T22:39:06.418Z,7.55
2022-08-14T22:44:16.807Z,9.73
2022-08-14T22:50:28.943Z,7.28
2022-08-14T22:54:52.476Z,7.43
2022-08-14T22:59:56.648Z,9.43
2022-08-14T23:05:02.680Z,7.38
2022-08-14T23:10:32.018Z,7.45
2022-08-14T23:15:34.073Z,8.25
2022-08-14T23:20:37.314Z,7.80
2022-08-14T23:25:57.095Z,7.20
2022-08-14T23:31:02.555Z,7.38
2022-08-14T23:36:28.418Z,7.30
2022-08-14T23:41:46.992Z,8.02
2022-08-14T23:47:00.725Z,7.55
2022-08-14T23:52:51.508Z,7.93
2022-08-14T23:57:32.226Z,8.45
